sensor_id;sensor_type;location;lat;lon;timestamp;temperature;humidity
71155;DHT22;59375;53.216;5.728;2023-05-02T00:02:02;10.40;99.90
71155;DHT22;59375;53.216;5.728;2023-05-02T00:04:27;10.40;99.90
71155;DHT22;59375;53.216;5.728;2023-05-02T00:06:53;10.40;99.90
71155;DHT22;59375;53.216;5.728;2023-05-02T00:09:18;10.30;99.90
71155;DHT22;59375;53.216;5.728;2023-05-02T00:11:44;10.40;99.90
71155;DHT22;59375;53.216;5.728;2023-05-02T00:14:10;10.40;99.90
71155;DHT22;59375;53.216;5.728;2023-05-02T00:16:35;10.40;99.90
71155;DHT22;59375;53.216;5.728;2023-05-02T00:19:01;10.30;99.90
71155;DHT22;59375;53.216;5.728;2023-05-02T00:21:26;10.30;99.90
71155;DHT22;59375;53.216;5.728;2023-05-02T00:23:56;10.30;99.90
71155;DHT22;59375;53.216;5.728;2023-05-02T00:26:22;10.30;99.90
71155;DHT22;59375;53.216;5.728;2023-05-02T00:28:47;10.30;99.90
71155;DHT22;59375;53.216;5.728;2023-05-02T00:31:13;10.20;99.90
71155;DHT22;59375;53.216;5.728;2023-05-02T00:33:38;10.20;99.90
71155;DHT22;59375;53.216;5.728;2023-05-02T00:36:04;10.20;99.90
71155;DHT22;59375;53.216;5.728;2023-05-02T00:38:31;10.20;99.90
71155;DHT22;59375;53.216;5.728;2023-05-02T00:40:56;10.20;99.90
71155;DHT22;59375;53.216;5.728;2023-05-02T00:43:22;10.20;99.90
71155;DHT22;59375;53.216;5.728;2023-05-02T00:45:47;10.10;99.90
71155;DHT22;59375;53.216;5.728;2023-05-02T00:48:13;10.10;99.90
71155;DHT22;59375;53.216;5.728;2023-05-02T00:50:39;10.00;99.90
71155;DHT22;59375;53.216;5.728;2023-05-02T00:53:06;9.90;99.90
71155;DHT22;59375;53.216;5.728;2023-05-02T00:55:31;10.00;99.90
71155;DHT22;59375;53.216;5.728;2023-05-02T00:58:00;10.00;99.90
71155;DHT22;59375;53.216;5.728;2023-05-02T01:06:13;9.80;99.90
71155;DHT22;59375;53.216;5.728;2023-05-02T01:08:46;9.70;99.90
71155;DHT22;59375;53.216;5.728;2023-05-02T01:11:21;9.70;99.90
71155;DHT22;59375;53.216;5.728;2023-05-02T01:13:51;9.70;99.90
71155;DHT22;59375;53.216;5.728;2023-05-02T01:16:17;9.50;99.90
71155;DHT22;59375;53.216;5.728;2023-05-02T01:18:43;9.50;99.90
71155;DHT22;59375;53.216;5.728;2023-05-02T01:21:10;9.50;99.90
71155;DHT22;59375;53.216;5.728;2023-05-02T01:26:26;9.40;99.90
71155;DHT22;59375;53.216;5.728;2023-05-02T01:29:07;9.30;99.90
71155;DHT22;59375;53.216;5.728;2023-05-02T01:31:38;9.30;99.90
71155;DHT22;59375;53.216;5.728;2023-05-02T01:34:05;9.40;99.90
71155;DHT22;59375;53.216;5.728;2023-05-02T01:36:32;9.30;99.90
71155;DHT22;59375;53.216;5.728;2023-05-02T01:39:00;9.30;99.90
71155;DHT22;59375;53.216;5.728;2023-05-02T01:41:27;9.30;99.90
71155;DHT22;59375;53.216;5.728;2023-05-02T01:43:54;9.30;99.90
71155;DHT22;59375;53.216;5.728;2023-05-02T01:46:21;9.20;99.90
71155;DHT22;59375;53.216;5.728;2023-05-02T01:48:47;9.20;99.90
71155;DHT22;59375;53.216;5.728;2023-05-02T01:51:16;9.10;99.90
71155;DHT22;59375;53.216;5.728;2023-05-02T01:53:44;9.10;99.90
71155;DHT22;59375;53.216;5.728;2023-05-02T01:56:10;9.10;99.90
71155;DHT22;59375;53.216;5.728;2023-05-02T01:58:36;9.00;99.90
71155;DHT22;59375;53.216;5.728;2023-05-02T02:01:03;9.00;99.90
71155;DHT22;59375;53.216;5.728;2023-05-02T02:03:28;9.10;99.90
71155;DHT22;59375;53.216;5.728;2023-05-02T02:05:55;9.10;99.90
71155;DHT22;59375;53.216;5.728;2023-05-02T02:08:21;9.00;99.90
71155;DHT22;59375;53.216;5.728;2023-05-02T02:10:48;9.00;99.90
71155;DHT22;59375;53.216;5.728;2023-05-02T02:13:24;9.00;99.90
71155;DHT22;59375;53.216;5.728;2023-05-02T02:15:51;9.00;99.90
71155;DHT22;59375;53.216;5.728;2023-05-02T02:18:22;9.00;99.90
71155;DHT22;59375;53.216;5.728;2023-05-02T02:20:50;9.00;99.90
71155;DHT22;59375;53.216;5.728;2023-05-02T02:23:17;9.00;99.90
71155;DHT22;59375;53.216;5.728;2023-05-02T02:25:44;9.00;99.90
71155;DHT22;59375;53.216;5.728;2023-05-02T02:28:10;9.00;99.90
71155;DHT22;59375;53.216;5.728;2023-05-02T02:30:35;9.00;99.90
71155;DHT22;59375;53.216;5.728;2023-05-02T02:33:01;9.00;99.90
71155;DHT22;59375;53.216;5.728;2023-05-02T02:35:28;9.00;99.90
71155;DHT22;59375;53.216;5.728;2023-05-02T02:40:28;9.00;99.90
71155;DHT22;59375;53.216;5.728;2023-05-02T02:42:59;8.90;99.90
71155;DHT22;59375;53.216;5.728;2023-05-02T02:53:32;8.70;99.90
71155;DHT22;59375;53.216;5.728;2023-05-02T02:56:02;8.70;99.90
71155;DHT22;59375;53.216;5.728;2023-05-02T02:58:40;8.70;99.90
71155;DHT22;59375;53.216;5.728;2023-05-02T03:01:08;8.70;99.90
71155;DHT22;59375;53.216;5.728;2023-05-02T03:03:35;8.70;99.90
71155;DHT22;59375;53.216;5.728;2023-05-02T03:06:04;8.70;99.90
71155;DHT22;59375;53.216;5.728;2023-05-02T03:08:37;8.70;99.90
71155;DHT22;59375;53.216;5.728;2023-05-02T03:11:02;8.70;99.90
71155;DHT22;59375;53.216;5.728;2023-05-02T03:13:28;8.80;99.90
71155;DHT22;59375;53.216;5.728;2023-05-02T03:18:38;8.80;99.90
71155;DHT22;59375;53.216;5.728;2023-05-02T03:21:04;8.70;99.90
71155;DHT22;59375;53.216;5.728;2023-05-02T03:23:30;8.70;99.90
71155;DHT22;59375;53.216;5.728;2023-05-02T03:25:55;8.60;99.90
71155;DHT22;59375;53.216;5.728;2023-05-02T03:28:21;8.70;99.90
71155;DHT22;59375;53.216;5.728;2023-05-02T03:30:46;8.60;99.90
71155;DHT22;59375;53.216;5.728;2023-05-02T03:33:12;8.60;99.90
71155;DHT22;59375;53.216;5.728;2023-05-02T03:35:37;8.60;99.90
71155;DHT22;59375;53.216;5.728;2023-05-02T03:38:03;8.60;99.90
71155;DHT22;59375;53.216;5.728;2023-05-02T03:40:29;8.60;99.90
71155;DHT22;59375;53.216;5.728;2023-05-02T03:42:54;8.50;99.90
71155;DHT22;59375;53.216;5.728;2023-05-02T03:45:20;8.50;99.90
71155;DHT22;59375;53.216;5.728;2023-05-02T03:47:45;8.50;99.90
71155;DHT22;59375;53.216;5.728;2023-05-02T03:50:11;8.40;99.90
71155;DHT22;59375;53.216;5.728;2023-05-02T03:52:36;8.40;99.90
71155;DHT22;59375;53.216;5.728;2023-05-02T03:55:02;8.30;99.90
71155;DHT22;59375;53.216;5.728;2023-05-02T03:57:28;8.40;99.90
71155;DHT22;59375;53.216;5.728;2023-05-02T03:59:54;8.40;99.90
71155;DHT22;59375;53.216;5.728;2023-05-02T04:02:20;8.50;99.90
71155;DHT22;59375;53.216;5.728;2023-05-02T04:04:45;8.50;99.90
71155;DHT22;59375;53.216;5.728;2023-05-02T04:07:11;8.50;99.90
71155;DHT22;59375;53.216;5.728;2023-05-02T04:09:42;8.50;99.90
71155;DHT22;59375;53.216;5.728;2023-05-02T04:12:08;8.40;99.90
71155;DHT22;59375;53.216;5.728;2023-05-02T04:14:33;8.30;99.90
71155;DHT22;59375;53.216;5.728;2023-05-02T04:16:59;8.20;99.90
71155;DHT22;59375;53.216;5.728;2023-05-02T04:19:24;8.20;99.90
71155;DHT22;59375;53.216;5.728;2023-05-02T04:21:50;8.20;99.90
71155;DHT22;59375;53.216;5.728;2023-05-02T04:24:15;8.20;99.90
71155;DHT22;59375;53.216;5.728;2023-05-02T04:26:41;8.20;99.90
71155;DHT22;59375;53.216;5.728;2023-05-02T04:29:06;8.10;99.90
71155;DHT22;59375;53.216;5.728;2023-05-02T04:31:32;8.10;99.90
71155;DHT22;59375;53.216;5.728;2023-05-02T04:33:57;8.20;99.90
71155;DHT22;59375;53.216;5.728;2023-05-02T04:36:23;8.20;99.90
71155;DHT22;59375;53.216;5.728;2023-05-02T04:38:49;8.20;99.90
71155;DHT22;59375;53.216;5.728;2023-05-02T04:41:14;8.10;99.90
71155;DHT22;59375;53.216;5.728;2023-05-02T04:43:40;8.10;99.90
71155;DHT22;59375;53.216;5.728;2023-05-02T04:46:05;8.20;99.90
71155;DHT22;59375;53.216;5.728;2023-05-02T04:48:31;8.10;99.90
71155;DHT22;59375;53.216;5.728;2023-05-02T04:50:57;8.10;99.90
71155;DHT22;59375;53.216;5.728;2023-05-02T04:53:23;8.10;99.90
71155;DHT22;59375;53.216;5.728;2023-05-02T04:55:49;8.10;99.90
71155;DHT22;59375;53.216;5.728;2023-05-02T04:58:14;8.10;99.90
71155;DHT22;59375;53.216;5.728;2023-05-02T05:00:40;8.10;99.90
71155;DHT22;59375;53.216;5.728;2023-05-02T05:03:05;8.10;99.90
71155;DHT22;59375;53.216;5.728;2023-05-02T05:05:31;8.00;99.90
71155;DHT22;59375;53.216;5.728;2023-05-02T05:07:57;8.10;99.90
71155;DHT22;59375;53.216;5.728;2023-05-02T05:10:22;8.10;99.90
71155;DHT22;59375;53.216;5.728;2023-05-02T05:12:48;8.10;99.90
71155;DHT22;59375;53.216;5.728;2023-05-02T05:15:14;8.10;99.90
71155;DHT22;59375;53.216;5.728;2023-05-02T05:17:39;8.10;99.90
71155;DHT22;59375;53.216;5.728;2023-05-02T05:20:05;8.00;99.90
71155;DHT22;59375;53.216;5.728;2023-05-02T05:22:30;8.00;99.90
71155;DHT22;59375;53.216;5.728;2023-05-02T05:24:56;8.10;99.90
71155;DHT22;59375;53.216;5.728;2023-05-02T05:27:21;8.00;99.90
71155;DHT22;59375;53.216;5.728;2023-05-02T05:29:47;8.10;99.90
71155;DHT22;59375;53.216;5.728;2023-05-02T05:32:12;8.20;99.90
71155;DHT22;59375;53.216;5.728;2023-05-02T05:34:38;8.30;99.90
71155;DHT22;59375;53.216;5.728;2023-05-02T05:37:03;8.30;99.90
71155;DHT22;59375;53.216;5.728;2023-05-02T05:39:29;8.30;99.90
71155;DHT22;59375;53.216;5.728;2023-05-02T05:41:54;8.40;99.90
71155;DHT22;59375;53.216;5.728;2023-05-02T05:44:21;8.40;99.90
71155;DHT22;59375;53.216;5.728;2023-05-02T05:46:47;8.40;99.90
71155;DHT22;59375;53.216;5.728;2023-05-02T05:49:14;8.40;99.90
71155;DHT22;59375;53.216;5.728;2023-05-02T05:51:41;8.40;99.90
71155;DHT22;59375;53.216;5.728;2023-05-02T05:54:06;8.40;99.90
71155;DHT22;59375;53.216;5.728;2023-05-02T05:56:33;8.40;99.90
71155;DHT22;59375;53.216;5.728;2023-05-02T05:58:58;8.50;99.90
71155;DHT22;59375;53.216;5.728;2023-05-02T06:01:24;8.50;99.90
71155;DHT22;59375;53.216;5.728;2023-05-02T06:03:49;8.50;99.90
71155;DHT22;59375;53.216;5.728;2023-05-02T06:06:15;8.50;99.90
71155;DHT22;59375;53.216;5.728;2023-05-02T06:08:42;8.60;99.90
71155;DHT22;59375;53.216;5.728;2023-05-02T06:11:08;8.60;99.90
71155;DHT22;59375;53.216;5.728;2023-05-02T06:13:34;8.60;99.90
71155;DHT22;59375;53.216;5.728;2023-05-02T06:16:00;8.60;99.90
71155;DHT22;59375;53.216;5.728;2023-05-02T06:18:26;8.60;99.90
71155;DHT22;59375;53.216;5.728;2023-05-02T06:20:51;8.70;99.90
71155;DHT22;59375;53.216;5.728;2023-05-02T06:23:17;8.80;99.90
71155;DHT22;59375;53.216;5.728;2023-05-02T06:25:42;8.70;99.90
71155;DHT22;59375;53.216;5.728;2023-05-02T06:28:08;8.60;99.90
71155;DHT22;59375;53.216;5.728;2023-05-02T06:30:33;8.70;99.90
71155;DHT22;59375;53.216;5.728;2023-05-02T06:32:59;8.60;99.90
71155;DHT22;59375;53.216;5.728;2023-05-02T06:35:24;8.60;99.90
71155;DHT22;59375;53.216;5.728;2023-05-02T06:37:50;8.70;99.90
71155;DHT22;59375;53.216;5.728;2023-05-02T06:40:15;8.80;99.90
71155;DHT22;59375;53.216;5.728;2023-05-02T06:42:41;9.00;99.90
71155;DHT22;59375;53.216;5.728;2023-05-02T06:45:06;9.00;99.90
71155;DHT22;59375;53.216;5.728;2023-05-02T06:47:32;9.10;99.90
71155;DHT22;59375;53.216;5.728;2023-05-02T06:49:58;9.10;99.90
71155;DHT22;59375;53.216;5.728;2023-05-02T06:52:23;9.10;99.90
71155;DHT22;59375;53.216;5.728;2023-05-02T06:54:49;9.30;99.90
71155;DHT22;59375;53.216;5.728;2023-05-02T06:57:14;9.40;99.90
71155;DHT22;59375;53.216;5.728;2023-05-02T06:59:40;9.40;99.90
71155;DHT22;59375;53.216;5.728;2023-05-02T07:02:05;9.30;99.90
71155;DHT22;59375;53.216;5.728;2023-05-02T07:04:31;9.20;99.90
71155;DHT22;59375;53.216;5.728;2023-05-02T07:06:56;9.10;99.90
71155;DHT22;59375;53.216;5.728;2023-05-02T07:09:21;9.00;99.90
71155;DHT22;59375;53.216;5.728;2023-05-02T07:11:47;8.90;99.90
71155;DHT22;59375;53.216;5.728;2023-05-02T07:14:12;8.90;99.90
71155;DHT22;59375;53.216;5.728;2023-05-02T07:16:38;9.00;99.90
71155;DHT22;59375;53.216;5.728;2023-05-02T07:19:03;9.10;99.90
71155;DHT22;59375;53.216;5.728;2023-05-02T07:21:31;9.20;99.90
71155;DHT22;59375;53.216;5.728;2023-05-02T07:23:56;9.50;99.90
71155;DHT22;59375;53.216;5.728;2023-05-02T07:26:22;9.90;99.90
71155;DHT22;59375;53.216;5.728;2023-05-02T07:28:47;10.00;99.90
71155;DHT22;59375;53.216;5.728;2023-05-02T07:31:13;10.00;99.90
71155;DHT22;59375;53.216;5.728;2023-05-02T07:33:38;9.90;99.90
71155;DHT22;59375;53.216;5.728;2023-05-02T07:36:04;9.80;99.90
71155;DHT22;59375;53.216;5.728;2023-05-02T07:38:29;9.70;99.90
71155;DHT22;59375;53.216;5.728;2023-05-02T07:40:58;9.60;99.90
71155;DHT22;59375;53.216;5.728;2023-05-02T07:43:24;9.50;99.90
71155;DHT22;59375;53.216;5.728;2023-05-02T07:45:50;9.40;99.90
71155;DHT22;59375;53.216;5.728;2023-05-02T07:48:16;9.50;99.90
71155;DHT22;59375;53.216;5.728;2023-05-02T07:50:41;9.40;99.90
71155;DHT22;59375;53.216;5.728;2023-05-02T07:53:06;9.50;99.90
71155;DHT22;59375;53.216;5.728;2023-05-02T07:55:32;9.60;99.90
71155;DHT22;59375;53.216;5.728;2023-05-02T07:57:58;9.60;99.90
71155;DHT22;59375;53.216;5.728;2023-05-02T08:00:23;9.70;99.90
71155;DHT22;59375;53.216;5.728;2023-05-02T08:02:48;9.80;99.90
71155;DHT22;59375;53.216;5.728;2023-05-02T08:05:14;9.80;99.90
71155;DHT22;59375;53.216;5.728;2023-05-02T08:07:39;9.90;99.90
71155;DHT22;59375;53.216;5.728;2023-05-02T08:10:05;9.90;99.90
71155;DHT22;59375;53.216;5.728;2023-05-02T08:12:31;10.00;99.90
71155;DHT22;59375;53.216;5.728;2023-05-02T08:14:56;10.00;99.90
71155;DHT22;59375;53.216;5.728;2023-05-02T08:17:22;10.00;99.90
71155;DHT22;59375;53.216;5.728;2023-05-02T08:19:47;10.00;99.90
71155;DHT22;59375;53.216;5.728;2023-05-02T08:22:13;10.00;99.90
71155;DHT22;59375;53.216;5.728;2023-05-02T08:24:38;9.90;99.90
71155;DHT22;59375;53.216;5.728;2023-05-02T08:27:03;10.00;99.90
71155;DHT22;59375;53.216;5.728;2023-05-02T08:29:29;10.00;99.90
71155;DHT22;59375;53.216;5.728;2023-05-02T08:31:55;10.00;99.90
71155;DHT22;59375;53.216;5.728;2023-05-02T08:34:21;10.00;99.90
71155;DHT22;59375;53.216;5.728;2023-05-02T08:36:46;9.90;99.90
71155;DHT22;59375;53.216;5.728;2023-05-02T08:39:12;9.90;99.90
71155;DHT22;59375;53.216;5.728;2023-05-02T08:41:37;9.80;99.90
71155;DHT22;59375;53.216;5.728;2023-05-02T08:44:04;9.80;99.90
71155;DHT22;59375;53.216;5.728;2023-05-02T08:46:30;9.80;99.90
71155;DHT22;59375;53.216;5.728;2023-05-02T08:48:56;9.70;99.90
71155;DHT22;59375;53.216;5.728;2023-05-02T08:51:23;9.80;99.90
71155;DHT22;59375;53.216;5.728;2023-05-02T08:53:48;10.00;99.90
71155;DHT22;59375;53.216;5.728;2023-05-02T08:56:14;10.10;99.90
71155;DHT22;59375;53.216;5.728;2023-05-02T08:58:40;10.20;99.90
71155;DHT22;59375;53.216;5.728;2023-05-02T09:01:10;10.30;99.90
71155;DHT22;59375;53.216;5.728;2023-05-02T09:03:37;10.40;99.90
71155;DHT22;59375;53.216;5.728;2023-05-02T09:06:03;10.60;99.90
71155;DHT22;59375;53.216;5.728;2023-05-02T09:08:30;10.90;99.90
71155;DHT22;59375;53.216;5.728;2023-05-02T09:10:56;11.10;99.90
71155;DHT22;59375;53.216;5.728;2023-05-02T09:13:31;11.20;99.90
71155;DHT22;59375;53.216;5.728;2023-05-02T09:16:07;11.20;99.90
71155;DHT22;59375;53.216;5.728;2023-05-02T09:18:37;11.10;99.90
71155;DHT22;59375;53.216;5.728;2023-05-02T09:21:05;11.10;99.90
71155;DHT22;59375;53.216;5.728;2023-05-02T09:25:59;11.40;99.90
71155;DHT22;59375;53.216;5.728;2023-05-02T09:28:38;11.60;99.90
71155;DHT22;59375;53.216;5.728;2023-05-02T09:31:05;12.00;99.90
71155;DHT22;59375;53.216;5.728;2023-05-02T09:33:31;12.40;99.90
71155;DHT22;59375;53.216;5.728;2023-05-02T09:35:57;12.60;99.90
71155;DHT22;59375;53.216;5.728;2023-05-02T09:38:23;12.90;99.90
71155;DHT22;59375;53.216;5.728;2023-05-02T09:40:53;13.00;99.90
71155;DHT22;59375;53.216;5.728;2023-05-02T09:43:22;12.70;99.90
71155;DHT22;59375;53.216;5.728;2023-05-02T09:46:03;12.80;99.90
71155;DHT22;59375;53.216;5.728;2023-05-02T09:48:30;12.90;99.90
71155;DHT22;59375;53.216;5.728;2023-05-02T09:50:56;13.50;99.90
71155;DHT22;59375;53.216;5.728;2023-05-02T09:53:26;14.20;99.90
71155;DHT22;59375;53.216;5.728;2023-05-02T09:56:03;14.50;99.90
71155;DHT22;59375;53.216;5.728;2023-05-02T09:58:29;14.90;99.90
71155;DHT22;59375;53.216;5.728;2023-05-02T10:00:55;14.90;99.90
71155;DHT22;59375;53.216;5.728;2023-05-02T10:03:21;14.60;99.90
71155;DHT22;59375;53.216;5.728;2023-05-02T10:05:47;14.30;99.90
71155;DHT22;59375;53.216;5.728;2023-05-02T10:08:13;14.40;99.90
71155;DHT22;59375;53.216;5.728;2023-05-02T10:10:41;14.30;99.90
71155;DHT22;59375;53.216;5.728;2023-05-02T10:13:09;13.80;99.90
71155;DHT22;59375;53.216;5.728;2023-05-02T10:15:40;13.40;99.90
71155;DHT22;59375;53.216;5.728;2023-05-02T10:18:07;13.00;99.90
71155;DHT22;59375;53.216;5.728;2023-05-02T10:20:37;12.70;99.90
71155;DHT22;59375;53.216;5.728;2023-05-02T10:23:07;12.40;99.90
71155;DHT22;59375;53.216;5.728;2023-05-02T10:25:34;12.10;99.90
71155;DHT22;59375;53.216;5.728;2023-05-02T10:28:00;12.00;99.90
71155;DHT22;59375;53.216;5.728;2023-05-02T10:30:26;11.90;99.90
71155;DHT22;59375;53.216;5.728;2023-05-02T10:32:52;11.80;99.90
71155;DHT22;59375;53.216;5.728;2023-05-02T10:35:18;11.80;99.90
71155;DHT22;59375;53.216;5.728;2023-05-02T10:37:45;11.90;99.90
71155;DHT22;59375;53.216;5.728;2023-05-02T10:40:11;11.80;99.90
71155;DHT22;59375;53.216;5.728;2023-05-02T10:42:39;11.80;99.90
71155;DHT22;59375;53.216;5.728;2023-05-02T10:45:12;12.20;99.90
71155;DHT22;59375;53.216;5.728;2023-05-02T10:48:11;12.90;99.90
71155;DHT22;59375;53.216;5.728;2023-05-02T10:50:43;13.20;99.90
71155;DHT22;59375;53.216;5.728;2023-05-02T10:53:21;13.00;99.90
71155;DHT22;59375;53.216;5.728;2023-05-02T10:56:06;12.50;99.90
71155;DHT22;59375;53.216;5.728;2023-05-02T10:58:32;12.80;99.90
71155;DHT22;59375;53.216;5.728;2023-05-02T11:03:55;14.10;99.90
71155;DHT22;59375;53.216;5.728;2023-05-02T11:06:21;14.80;99.90
71155;DHT22;59375;53.216;5.728;2023-05-02T11:08:47;15.30;99.90
71155;DHT22;59375;53.216;5.728;2023-05-02T11:13:58;15.10;99.90
71155;DHT22;59375;53.216;5.728;2023-05-02T11:16:23;14.80;99.90
71155;DHT22;59375;53.216;5.728;2023-05-02T11:18:58;14.70;99.90
71155;DHT22;59375;53.216;5.728;2023-05-02T11:21:27;14.00;99.90
71155;DHT22;59375;53.216;5.728;2023-05-02T11:24:34;13.50;99.90
71155;DHT22;59375;53.216;5.728;2023-05-02T11:26:38;13.00;99.90
71155;DHT22;59375;53.216;5.728;2023-05-02T11:29:04;12.60;99.90
71155;DHT22;59375;53.216;5.728;2023-05-02T11:33:58;12.80;99.90
71155;DHT22;59375;53.216;5.728;2023-05-02T11:36:34;13.50;99.90
71155;DHT22;59375;53.216;5.728;2023-05-02T11:39:03;14.10;99.90
71155;DHT22;59375;53.216;5.728;2023-05-02T11:41:42;14.70;99.90
71155;DHT22;59375;53.216;5.728;2023-05-02T11:44:07;15.30;99.90
71155;DHT22;59375;53.216;5.728;2023-05-02T11:46:35;15.10;99.90
71155;DHT22;59375;53.216;5.728;2023-05-02T11:49:01;14.80;99.90
71155;DHT22;59375;53.216;5.728;2023-05-02T11:51:26;14.40;99.90
71155;DHT22;59375;53.216;5.728;2023-05-02T11:53:52;14.60;99.90
71155;DHT22;59375;53.216;5.728;2023-05-02T11:56:21;14.80;99.90
71155;DHT22;59375;53.216;5.728;2023-05-02T11:58:47;14.60;99.90
71155;DHT22;59375;53.216;5.728;2023-05-02T12:01:21;14.10;99.90
71155;DHT22;59375;53.216;5.728;2023-05-02T12:03:47;13.70;99.90
71155;DHT22;59375;53.216;5.728;2023-05-02T12:06:14;13.40;99.90
71155;DHT22;59375;53.216;5.728;2023-05-02T12:08:41;13.00;99.90
71155;DHT22;59375;53.216;5.728;2023-05-02T12:11:06;13.10;99.90
71155;DHT22;59375;53.216;5.728;2023-05-02T12:13:32;13.10;99.90
71155;DHT22;59375;53.216;5.728;2023-05-02T12:15:58;13.10;99.90
71155;DHT22;59375;53.216;5.728;2023-05-02T12:18:24;13.20;99.90
71155;DHT22;59375;53.216;5.728;2023-05-02T12:20:50;13.10;99.90
71155;DHT22;59375;53.216;5.728;2023-05-02T12:23:16;13.00;99.90
71155;DHT22;59375;53.216;5.728;2023-05-02T12:25:42;12.90;99.90
71155;DHT22;59375;53.216;5.728;2023-05-02T12:28:08;13.50;99.90
71155;DHT22;59375;53.216;5.728;2023-05-02T12:30:34;14.10;99.90
71155;DHT22;59375;53.216;5.728;2023-05-02T12:33:02;14.40;99.90
71155;DHT22;59375;53.216;5.728;2023-05-02T12:35:28;14.60;99.90
71155;DHT22;59375;53.216;5.728;2023-05-02T12:37:54;14.90;99.90
71155;DHT22;59375;53.216;5.728;2023-05-02T12:40:31;14.90;99.90
71155;DHT22;59375;53.216;5.728;2023-05-02T12:43:01;14.90;99.90
71155;DHT22;59375;53.216;5.728;2023-05-02T12:45:31;14.80;99.90
71155;DHT22;59375;53.216;5.728;2023-05-02T12:48:00;14.90;99.90
71155;DHT22;59375;53.216;5.728;2023-05-02T12:50:36;14.50;99.90
71155;DHT22;59375;53.216;5.728;2023-05-02T12:53:02;14.30;99.90
71155;DHT22;59375;53.216;5.728;2023-05-02T12:55:28;13.80;99.90
71155;DHT22;59375;53.216;5.728;2023-05-02T12:58:07;13.90;99.90
71155;DHT22;59375;53.216;5.728;2023-05-02T13:00:33;14.00;99.90
71155;DHT22;59375;53.216;5.728;2023-05-02T13:03:00;14.40;99.90
71155;DHT22;59375;53.216;5.728;2023-05-02T13:05:25;14.70;99.90
71155;DHT22;59375;53.216;5.728;2023-05-02T13:07:51;14.70;99.90
71155;DHT22;59375;53.216;5.728;2023-05-02T13:10:17;14.50;99.90
71155;DHT22;59375;53.216;5.728;2023-05-02T13:12:43;14.00;99.90
71155;DHT22;59375;53.216;5.728;2023-05-02T13:15:09;13.90;99.90
71155;DHT22;59375;53.216;5.728;2023-05-02T13:17:35;14.00;99.90
71155;DHT22;59375;53.216;5.728;2023-05-02T13:20:02;14.40;99.90
71155;DHT22;59375;53.216;5.728;2023-05-02T13:22:28;14.40;99.90
71155;DHT22;59375;53.216;5.728;2023-05-02T13:24:53;14.70;99.90
71155;DHT22;59375;53.216;5.728;2023-05-02T13:27:21;14.70;99.90
71155;DHT22;59375;53.216;5.728;2023-05-02T13:29:50;14.80;99.90
71155;DHT22;59375;53.216;5.728;2023-05-02T13:32:16;14.80;99.90
71155;DHT22;59375;53.216;5.728;2023-05-02T13:34:42;14.70;99.90
71155;DHT22;59375;53.216;5.728;2023-05-02T13:37:08;14.40;99.90
71155;DHT22;59375;53.216;5.728;2023-05-02T13:39:34;14.20;99.90
71155;DHT22;59375;53.216;5.728;2023-05-02T13:42:00;14.00;99.90
71155;DHT22;59375;53.216;5.728;2023-05-02T13:44:27;13.80;99.90
71155;DHT22;59375;53.216;5.728;2023-05-02T13:46:53;13.50;99.90
71155;DHT22;59375;53.216;5.728;2023-05-02T13:49:19;13.20;99.90
71155;DHT22;59375;53.216;5.728;2023-05-02T13:51:46;13.10;99.90
71155;DHT22;59375;53.216;5.728;2023-05-02T13:54:12;12.70;99.90
71155;DHT22;59375;53.216;5.728;2023-05-02T13:56:38;12.50;99.90
71155;DHT22;59375;53.216;5.728;2023-05-02T13:59:04;12.40;99.90
71155;DHT22;59375;53.216;5.728;2023-05-02T14:01:29;12.40;99.90
71155;DHT22;59375;53.216;5.728;2023-05-02T14:03:55;12.60;99.90
71155;DHT22;59375;53.216;5.728;2023-05-02T14:06:21;12.80;99.90
71155;DHT22;59375;53.216;5.728;2023-05-02T14:08:46;13.10;99.90
71155;DHT22;59375;53.216;5.728;2023-05-02T14:11:12;12.90;99.90
71155;DHT22;59375;53.216;5.728;2023-05-02T14:13:37;12.70;99.90
71155;DHT22;59375;53.216;5.728;2023-05-02T14:16:03;12.60;99.90
71155;DHT22;59375;53.216;5.728;2023-05-02T14:18:28;12.60;99.90
71155;DHT22;59375;53.216;5.728;2023-05-02T14:20:53;12.60;99.90
71155;DHT22;59375;53.216;5.728;2023-05-02T14:23:24;12.70;99.90
71155;DHT22;59375;53.216;5.728;2023-05-02T14:25:49;12.70;99.90
71155;DHT22;59375;53.216;5.728;2023-05-02T14:28:16;12.70;99.90
71155;DHT22;59375;53.216;5.728;2023-05-02T14:30:42;12.60;99.90
71155;DHT22;59375;53.216;5.728;2023-05-02T14:33:07;12.30;99.90
71155;DHT22;59375;53.216;5.728;2023-05-02T14:35:33;12.20;99.90
71155;DHT22;59375;53.216;5.728;2023-05-02T14:37:58;12.00;99.90
71155;DHT22;59375;53.216;5.728;2023-05-02T14:40:24;11.70;99.90
71155;DHT22;59375;53.216;5.728;2023-05-02T14:42:49;11.50;99.90
71155;DHT22;59375;53.216;5.728;2023-05-02T14:45:15;11.40;99.90
71155;DHT22;59375;53.216;5.728;2023-05-02T14:47:42;11.60;99.90
71155;DHT22;59375;53.216;5.728;2023-05-02T14:50:07;11.80;99.90
71155;DHT22;59375;53.216;5.728;2023-05-02T14:52:33;12.00;99.90
71155;DHT22;59375;53.216;5.728;2023-05-02T14:54:59;12.20;99.90
71155;DHT22;59375;53.216;5.728;2023-05-02T14:57:24;12.30;99.90
71155;DHT22;59375;53.216;5.728;2023-05-02T14:59:50;12.40;99.90
71155;DHT22;59375;53.216;5.728;2023-05-02T15:02:16;12.60;99.90
71155;DHT22;59375;53.216;5.728;2023-05-02T15:04:41;12.60;99.90
71155;DHT22;59375;53.216;5.728;2023-05-02T15:07:06;12.40;99.90
71155;DHT22;59375;53.216;5.728;2023-05-02T15:09:32;12.20;99.90
71155;DHT22;59375;53.216;5.728;2023-05-02T15:11:57;12.00;99.90
71155;DHT22;59375;53.216;5.728;2023-05-02T15:14:23;11.80;99.90
71155;DHT22;59375;53.216;5.728;2023-05-02T15:16:48;11.80;99.90
71155;DHT22;59375;53.216;5.728;2023-05-02T15:19:14;11.70;99.90
71155;DHT22;59375;53.216;5.728;2023-05-02T15:21:39;11.60;99.90
71155;DHT22;59375;53.216;5.728;2023-05-02T15:24:05;11.40;99.90
71155;DHT22;59375;53.216;5.728;2023-05-02T15:26:31;11.30;99.90
71155;DHT22;59375;53.216;5.728;2023-05-02T15:28:56;11.20;99.90
71155;DHT22;59375;53.216;5.728;2023-05-02T15:31:22;11.20;99.90
71155;DHT22;59375;53.216;5.728;2023-05-02T15:33:48;11.20;99.90
71155;DHT22;59375;53.216;5.728;2023-05-02T15:36:13;11.40;99.90
71155;DHT22;59375;53.216;5.728;2023-05-02T15:38:40;11.60;99.90
71155;DHT22;59375;53.216;5.728;2023-05-02T15:41:07;11.70;99.90
71155;DHT22;59375;53.216;5.728;2023-05-02T15:43:33;11.80;99.90
71155;DHT22;59375;53.216;5.728;2023-05-02T15:45:58;11.90;99.90
71155;DHT22;59375;53.216;5.728;2023-05-02T15:48:30;11.90;99.90
71155;DHT22;59375;53.216;5.728;2023-05-02T15:50:59;11.90;99.90
71155;DHT22;59375;53.216;5.728;2023-05-02T15:53:24;12.00;99.90
71155;DHT22;59375;53.216;5.728;2023-05-02T15:55:50;12.20;99.90
71155;DHT22;59375;53.216;5.728;2023-05-02T15:58:16;12.20;99.90
71155;DHT22;59375;53.216;5.728;2023-05-02T16:00:42;12.20;99.90
71155;DHT22;59375;53.216;5.728;2023-05-02T16:03:08;12.10;99.90
71155;DHT22;59375;53.216;5.728;2023-05-02T16:05:34;12.10;99.90
71155;DHT22;59375;53.216;5.728;2023-05-02T16:08:00;12.30;99.90